Time;durP1;ratioP1;P1;durP2;ratioP2;P2;SDS_P1;SDS_P2;PMS_P1;PMS_P2;Temp;Humidity;BMP_temperature;BMP_pressure;BME280_temperature;BME280_humidity;BME280_pressure;Samples;Min_cycle;Max_cycle;Signal;HPM_P1;HPM_P2
2022/12/27 00:01:30;;;;;;;1999.90;999.90;;;;;;;7.45;100.00;94614.16;5015529;28;20182;-64
2022/12/27 00:03:55;;;;;;;1999.90;999.90;;;;;;;7.49;100.00;94612.97;5015233;28;20213;-64
2022/12/27 00:06:23;;;;;;;1999.90;999.90;;;;;;;7.47;100.00;94615.28;5015052;28;20228;-65
2022/12/27 00:08:49;;;;;;;1999.90;999.90;;;;;;;7.44;100.00;94626.97;5014940;28;20188;-64
2022/12/27 00:11:17;;;;;;;1999.90;999.90;;;;;;;7.44;100.00;94643.28;5015419;28;20180;-68
2022/12/27 00:13:43;;;;;;;1999.90;999.90;;;;;;;7.40;100.00;94656.13;5015801;28;20189;-65
2022/12/27 00:16:12;;;;;;;1999.90;999.90;;;;;;;7.40;100.00;94664.28;5015282;28;20182;-64
2022/12/27 00:18:38;;;;;;;1999.90;999.90;;;;;;;7.38;100.00;94680.19;5014886;28;20246;-64
2022/12/27 00:21:05;;;;;;;1999.90;999.90;;;;;;;7.36;100.00;94695.34;5014946;28;20179;-64
2022/12/27 00:23:37;;;;;;;1999.90;999.90;;;;;;;7.34;100.00;94703.88;5015107;28;20209;-65
2022/12/27 00:26:08;;;;;;;1999.90;999.90;;;;;;;7.34;100.00;94709.31;5014811;28;20200;-64
2022/12/27 00:28:34;;;;;;;1999.90;999.90;;;;;;;7.31;100.00;94720.19;5015614;28;20211;-65
2022/12/27 00:31:00;;;;;;;1999.90;999.90;;;;;;;7.27;100.00;94722.94;5015008;28;20335;-64
2022/12/27 00:33:28;;;;;;;1999.90;999.90;;;;;;;7.28;100.00;94732.63;5014673;28;20181;-64
2022/12/27 00:35:53;;;;;;;1999.90;999.90;;;;;;;7.27;100.00;94731.06;5015320;28;20197;-65
2022/12/27 00:38:20;;;;;;;1999.90;999.90;;;;;;;7.31;100.00;94756.25;5014869;28;20268;-64
2022/12/27 00:40:45;;;;;;;1999.90;999.90;;;;;;;7.34;100.00;94751.97;5014680;28;20232;-64
2022/12/27 00:43:10;;;;;;;1999.90;999.90;;;;;;;7.36;100.00;94757.78;5014919;28;20182;-64
2022/12/27 00:45:36;;;;;;;1999.90;999.90;;;;;;;7.51;100.00;94765.47;5014807;28;20242;-65
2022/12/27 00:48:01;;;;;;;1999.90;999.90;;;;;;;7.41;100.00;94774.44;5014730;28;20179;-66
2022/12/27 00:50:26;;;;;;;1999.90;999.90;;;;;;;7.37;100.00;94790.00;5014736;28;20178;-64
2022/12/27 00:52:52;;;;;;;1999.90;999.90;;;;;;;7.39;100.00;94798.50;5014378;28;20171;-64
2022/12/27 00:55:17;;;;;;;1999.90;999.90;;;;;;;7.35;100.00;94797.75;5014416;28;20204;-65
2022/12/27 00:57:42;;;;;;;1999.90;999.90;;;;;;;7.37;100.00;94810.94;5014450;28;20269;-65
2022/12/27 01:00:09;;;;;;;1999.90;999.90;;;;;;;7.29;100.00;94821.06;5015107;28;20181;-65
2022/12/27 01:02:35;;;;;;;1999.90;999.90;;;;;;;7.23;100.00;94840.88;5014860;28;20203;-65
2022/12/27 01:05:00;;;;;;;1999.90;999.90;;;;;;;7.11;100.00;94887.47;5014613;28;20230;-67
2022/12/27 01:07:26;;;;;;;1999.90;999.90;;;;;;;7.04;100.00;94923.56;5014188;28;20178;-63
2022/12/27 01:09:51;;;;;;;1999.90;999.90;;;;;;;6.97;100.00;94963.50;5014826;28;20181;-64
2022/12/27 01:12:16;;;;;;;1999.90;999.90;;;;;;;7.07;100.00;94996.06;5014280;28;20200;-64
2022/12/27 01:14:42;;;;;;;1999.90;999.90;;;;;;;6.92;100.00;95029.81;5014093;28;20177;-64
2022/12/27 01:17:07;;;;;;;1999.90;999.90;;;;;;;6.80;100.00;95057.34;5014139;28;20222;-64
2022/12/27 01:19:37;;;;;;;1999.90;999.90;;;;;;;6.77;100.00;95077.09;5014067;28;20204;-67
2022/12/27 01:22:03;;;;;;;1999.90;999.90;;;;;;;6.76;100.00;95106.19;5014039;28;20178;-64
2022/12/27 01:24:29;;;;;;;1999.90;999.90;;;;;;;6.76;100.00;95132.53;5014660;28;20201;-64
2022/12/27 01:26:54;;;;;;;1999.90;999.90;;;;;;;6.70;100.00;95172.81;5014563;28;20186;-61
2022/12/27 01:29:20;;;;;;;1999.90;999.90;;;;;;;6.69;100.00;95227.47;5014074;28;20197;-61
2022/12/27 01:31:45;;;;;;;1999.90;999.90;;;;;;;6.67;100.00;95275.91;5014476;28;20170;-63
2022/12/27 01:34:11;;;;;;;1999.90;999.90;;;;;;;6.58;100.00;95330.50;5014087;28;20313;-63
2022/12/27 01:36:36;;;;;;;1999.90;999.90;;;;;;;6.52;100.00;95350.25;5014458;28;20178;-62
2022/12/27 01:39:02;;;;;;;1999.90;999.90;;;;;;;6.50;100.00;95394.03;5013986;28;20212;-62
2022/12/27 01:44:38;;;;;;;1999.90;999.90;;;;;;;6.47;100.00;95445.50;5015065;28;20213;-62
2022/12/27 01:47:20;;;;;;;1999.90;999.90;;;;;;;6.40;100.00;95473.34;5013505;28;20186;-62
2022/12/27 01:50:10;;;;;;;1999.90;999.90;;;;;;;6.41;100.00;95495.84;5013648;28;20177;-62
2022/12/27 01:52:39;;;;;;;1999.90;999.90;;;;;;;6.40;100.00;95514.03;5005326;28;20193;-62
2022/12/27 01:55:21;;;;;;;1999.90;999.90;;;;;;;6.27;100.00;95533.66;5014377;28;20180;-62
2022/12/27 01:57:49;;;;;;;1999.90;999.90;;;;;;;6.19;100.00;95550.97;5014276;28;20166;-62
2022/12/27 02:00:15;;;;;;;1999.90;999.90;;;;;;;6.16;100.00;95557.94;5014201;28;20187;-69
2022/12/27 02:02:41;;;;;;;1999.90;999.90;;;;;;;6.08;100.00;95571.78;5013823;28;20257;-68
2022/12/27 02:05:11;;;;;;;1999.90;999.90;;;;;;;6.06;100.00;95579.50;5013407;28;20229;-68
2022/12/27 02:07:48;;;;;;;1999.90;999.90;;;;;;;6.03;100.00;95585.66;5013932;28;20228;-68
2022/12/27 02:10:13;;;;;;;1999.90;999.90;;;;;;;5.99;100.00;95592.97;5014042;28;20169;-68
2022/12/27 02:12:39;;;;;;;1999.90;999.90;;;;;;;5.94;100.00;95587.88;5013946;28;20580;-68
2022/12/27 02:15:05;;;;;;;1999.90;999.90;;;;;;;6.03;100.00;95591.09;5014150;28;20182;-69
2022/12/27 02:17:32;;;;;;;1999.90;999.90;;;;;;;6.14;100.00;95589.28;5014112;28;20208;-68
2022/12/27 02:20:19;;;;;;;1999.90;999.90;;;;;;;6.14;100.00;95592.00;5013496;28;20174;-63
2022/12/27 02:26:09;;;;;;;1999.90;999.90;;;;;;;6.14;100.00;95594.69;5014300;28;20197;-64
2022/12/27 02:28:58;;;;;;;1999.90;999.90;;;;;;;6.04;100.00;95606.19;5013972;28;20176;-64
2022/12/27 02:31:32;;;;;;;1999.90;999.90;;;;;;;6.11;100.00;95615.19;5013892;28;20177;-64
2022/12/27 02:34:03;;;;;;;1999.90;999.90;;;;;;;6.12;100.00;95616.00;5013654;28;20231;-63
2022/12/27 02:36:33;;;;;;;1999.90;999.90;;;;;;;6.13;100.00;95614.84;5013626;28;20206;-62
2022/12/27 02:39:01;;;;;;;1999.90;999.90;;;;;;;6.14;100.00;95614.47;5013967;28;20189;-67
2022/12/27 02:53:03;;;;;;;1999.90;999.90;;;;;;;6.24;100.00;95613.78;5018188;28;20227;-63
2022/12/27 02:58:46;;;;;;;1999.90;999.90;;;;;;;6.30;100.00;95622.38;5017954;28;20232;-63
2022/12/27 03:05:12;;;;;;;1999.90;999.90;;;;;;;6.34;100.00;95644.94;4976232;28;20212;-64
2022/12/27 03:07:51;;;;;;;1999.90;999.90;;;;;;;6.37;100.00;95682.13;5017168;28;20185;-62
2022/12/27 03:16:54;;;;;;;1999.90;999.90;;;;;;;6.12;100.00;95713.59;5017482;28;20235;-66
2022/12/27 03:25:29;;;;;;;1999.90;999.90;;;;;;;5.84;100.00;95805.28;5017230;28;20569;-66
2022/12/27 03:33:35;;;;;;;1999.90;999.90;;;;;;;5.68;100.00;95878.53;5017481;28;20219;-67
2022/12/27 03:39:15;;;;;;;1999.90;999.90;;;;;;;5.72;100.00;95911.88;5017312;28;20207;-63
2022/12/27 03:44:37;;;;;;;1999.90;999.90;;;;;;;5.69;100.00;95928.09;5016900;28;20195;-61
2022/12/27 03:47:36;;;;;;;1999.90;999.90;;;;;;;5.66;100.00;95934.22;5015840;28;20183;-61
2022/12/27 03:50:12;;;;;;;1999.90;999.90;;;;;;;5.64;100.00;95936.47;5016427;28;20169;-67
2022/12/27 03:52:43;;;;;;;1999.90;999.90;;;;;;;5.62;100.00;95936.06;5016274;28;20178;-65
2022/12/27 03:55:10;;;;;;;1999.90;999.90;;;;;;;5.59;100.00;95939.50;5015670;28;20177;-63
2022/12/27 03:57:36;;;;;;;1999.90;999.90;;;;;;;5.55;100.00;95944.06;5016070;28;20166;-63
2022/12/27 04:00:04;;;;;;;1999.90;999.90;;;;;;;5.46;100.00;95946.97;5014527;28;20177;-64
2022/12/27 04:02:30;;;;;;;1999.90;999.90;;;;;;;5.47;100.00;95939.66;5015587;28;20275;-63
2022/12/27 04:04:55;;;;;;;1999.90;999.90;;;;;;;5.48;100.00;95949.34;5015182;28;20255;-64
2022/12/27 04:07:20;;;;;;;1999.90;999.90;;;;;;;5.41;100.00;95949.97;5015983;28;20176;-63
2022/12/27 04:34:42;;;;;;;1999.90;999.90;;;;;;;4.83;100.00;95993.53;5016301;28;20636;-62
2022/12/27 04:37:18;;;;;;;1999.90;999.90;;;;;;;4.62;100.00;96033.63;5015776;28;20197;-62
2022/12/27 04:54:55;;;;;;;1999.90;999.90;;;;;;;4.53;100.00;96049.22;5015259;28;20184;-61
2022/12/27 04:56:14;;;;;;;1999.90;999.90;;;;;;;4.18;100.00;96183.44;5015910;28;20166;-63
2022/12/27 05:02:01;;;;;;;1999.90;999.90;;;;;;;4.12;100.00;96196.41;5014592;28;20175;-63
2022/12/27 05:04:09;;;;;;;1999.90;999.90;;;;;;;4.09;100.00;96196.28;5015210;28;20273;-60
2022/12/27 05:06:34;;;;;;;1999.90;999.90;;;;;;;4.11;100.00;96204.84;5013815;28;20227;-60
2022/12/27 05:13:58;;;;;;;1999.90;999.90;;;;;;;4.11;100.00;96210.25;5015402;28;20250;-61
2022/12/27 05:14:44;;;;;;;1999.90;999.90;;;;;;;4.11;100.00;96204.84;5015095;28;20166;-61
2022/12/27 05:17:10;;;;;;;1999.90;999.90;;;;;;;4.16;100.00;96207.31;5014333;28;20179;-60
2022/12/27 05:19:35;;;;;;;1999.90;999.90;;;;;;;4.12;100.00;96218.03;5014219;28;20203;-60
2022/12/27 05:27:28;;;;;;;1999.90;999.90;;;;;;;4.19;100.00;96220.13;5015368;28;20176;-65
2022/12/27 05:29:53;;;;;;;1999.90;999.90;;;;;;;4.17;100.00;96225.06;5014363;28;20176;-65
2022/12/27 05:32:19;;;;;;;1999.90;999.90;;;;;;;4.20;100.00;96235.22;5013832;28;20604;-65
2022/12/27 05:34:44;;;;;;;1999.90;999.90;;;;;;;4.21;100.00;96255.69;5013666;28;20181;-62
2022/12/27 05:37:09;;;;;;;1999.90;999.90;;;;;;;4.20;100.00;96262.25;5013707;28;20182;-64
2022/12/27 05:39:35;;;;;;;1999.90;999.90;;;;;;;4.20;100.00;96267.66;5013565;28;20179;-64
2022/12/27 05:42:02;;;;;;;1999.90;999.90;;;;;;;4.24;100.00;96284.75;5013949;28;20179;-66
2022/12/27 05:44:27;;;;;;;1999.90;999.90;;;;;;;4.26;100.00;96296.03;5013869;28;20207;-60
2022/12/27 05:46:53;;;;;;;1999.90;999.90;;;;;;;4.27;100.00;96300.28;5014680;28;20186;-60
2022/12/27 05:49:19;;;;;;;1999.90;999.90;;;;;;;4.24;100.00;96300.97;5014298;28;20278;-60
2022/12/27 05:51:44;;;;;;;1999.90;999.90;;;;;;;4.21;100.00;96307.06;5013939;28;20203;-61
2022/12/27 05:54:09;;;;;;;1999.90;999.90;;;;;;;4.18;100.00;96302.34;5014300;28;20270;-63
2022/12/27 05:56:36;;;;;;;1999.90;999.90;;;;;;;4.12;100.00;96315.31;5014344;28;20175;-60
2022/12/27 05:59:02;;;;;;;1999.90;999.90;;;;;;;3.99;100.00;96318.31;5013538;28;20187;-64
2022/12/27 06:01:27;;;;;;;1999.90;999.90;;;;;;;3.89;100.00;96332.31;5013613;28;20259;-63
2022/12/27 06:03:52;;;;;;;1999.90;999.90;;;;;;;3.82;100.00;96332.84;5013701;28;20207;-60
2022/12/27 06:06:18;;;;;;;1999.90;999.90;;;;;;;3.78;100.00;96333.88;5013403;28;20306;-60
2022/12/27 06:08:43;;;;;;;1999.90;999.90;;;;;;;3.69;100.00;96335.88;5013620;28;20269;-63
2022/12/27 06:11:11;;;;;;;1999.90;999.90;;;;;;;3.65;100.00;96348.47;5014734;28;20186;-62
2022/12/27 06:13:38;;;;;;;1999.90;999.90;;;;;;;3.60;100.00;96335.19;5014112;28;20183;-62
2022/12/27 06:16:06;;;;;;;1999.90;999.90;;;;;;;3.50;100.00;96326.38;5013610;28;20171;-62
2022/12/27 06:18:33;;;;;;;1999.90;999.90;;;;;;;3.42;100.00;96329.97;5013511;28;20208;-63
2022/12/27 06:21:25;;;;;;;1999.90;999.90;;;;;;;3.31;100.00;96328.81;5013351;28;20180;-66
2022/12/27 06:23:50;;;;;;;1999.90;999.90;;;;;;;3.28;100.00;96326.78;5013404;28;20215;-66
2022/12/27 06:26:22;;;;;;;1999.90;999.90;;;;;;;3.20;100.00;96316.88;5017039;28;20179;-64
2022/12/27 06:28:48;;;;;;;1999.90;999.90;;;;;;;3.16;100.00;96321.38;5017757;28;20317;-65
2022/12/27 06:31:15;;;;;;;1999.90;999.90;;;;;;;3.08;100.00;96314.16;5017282;28;20243;-64
2022/12/27 06:33:41;;;;;;;1999.90;999.90;;;;;;;3.09;100.00;96304.94;5017772;28;20199;-66
2022/12/27 06:36:09;;;;;;;1999.90;999.90;;;;;;;3.09;100.00;96299.53;5017747;28;20254;-62
2022/12/27 06:38:35;;;;;;;1999.90;999.90;;;;;;;3.07;100.00;96290.22;5017082;28;20632;-62
2022/12/27 06:41:05;;;;;;;1999.90;999.90;;;;;;;2.99;100.00;96283.75;5017572;28;20211;-63
2022/12/27 06:43:30;;;;;;;1999.90;999.90;;;;;;;2.98;100.00;96276.81;5017008;28;20171;-64
2022/12/27 06:45:57;;;;;;;1999.90;999.90;;;;;;;2.94;100.00;96267.78;5017204;28;20206;-64
2022/12/27 06:48:23;;;;;;;1999.90;999.90;;;;;;;2.90;100.00;96258.81;5016972;28;20274;-63
2022/12/27 06:50:48;;;;;;;1999.90;999.90;;;;;;;2.85;100.00;96250.91;5017308;28;20202;-64
2022/12/27 06:53:14;;;;;;;1999.90;999.90;;;;;;;2.81;100.00;96255.38;5017264;28;20171;-63
2022/12/27 06:55:39;;;;;;;1999.90;999.90;;;;;;;2.79;100.00;96235.28;5016487;28;20207;-62
2022/12/27 06:58:04;;;;;;;1999.90;999.90;;;;;;;2.75;100.00;96218.19;5017430;28;20523;-61
2022/12/27 07:00:30;;;;;;;1999.90;999.90;;;;;;;2.69;100.00;96206.81;5016723;28;20179;-62
2022/12/27 07:02:55;;;;;;;1999.90;999.90;;;;;;;2.65;100.00;96200.53;5016302;28;20199;-62
2022/12/27 07:05:20;;;;;;;1999.90;999.90;;;;;;;2.64;100.00;96190.06;5016124;28;20269;-62
2022/12/27 07:07:45;;;;;;;1999.90;999.90;;;;;;;2.63;100.00;96186.56;5016648;28;20262;-62
2022/12/27 07:10:11;;;;;;;1999.90;999.90;;;;;;;2.60;100.00;96163.00;5016263;28;20179;-63
2022/12/27 07:12:36;;;;;;;1999.90;999.90;;;;;;;2.63;100.00;96156.94;5016210;28;20175;-63
2022/12/27 07:15:03;;;;;;;1999.90;999.90;;;;;;;2.69;100.00;96142.13;5016393;28;20183;-62
2022/12/27 07:17:28;;;;;;;1999.90;999.90;;;;;;;2.69;100.00;96123.25;5016209;28;20266;-62
2022/12/27 07:19:54;;;;;;;1999.90;999.90;;;;;;;2.62;100.00;96117.63;5015859;28;20199;-64
2022/12/27 07:22:19;;;;;;;1999.90;999.90;;;;;;;2.56;100.00;96092.03;5016419;28;20645;-68
2022/12/27 07:24:44;;;;;;;1999.90;999.90;;;;;;;2.54;100.00;96083.47;5016039;28;20321;-62
2022/12/27 07:27:10;;;;;;;1999.90;999.90;;;;;;;2.57;100.00;96072.03;5016098;28;20190;-66
2022/12/27 07:29:35;;;;;;;1999.90;999.90;;;;;;;2.59;100.00;96053.59;5016222;28;20195;-63
2022/12/27 07:32:00;;;;;;;1999.90;999.90;;;;;;;2.59;100.00;96037.41;5016079;28;20232;-62
2022/12/27 07:34:26;;;;;;;1999.90;999.90;;;;;;;2.64;100.00;96018.34;5016071;28;20578;-64
2022/12/27 07:36:51;;;;;;;1999.90;999.90;;;;;;;2.65;100.00;96009.13;5016480;28;20262;-67
2022/12/27 07:39:16;;;;;;;1999.90;999.90;;;;;;;2.67;100.00;95998.81;5015961;28;20211;-65
2022/12/27 07:41:42;;;;;;;1999.90;999.90;;;;;;;2.65;100.00;95987.56;5015898;28;20199;-66
2022/12/27 07:44:09;;;;;;;1999.90;999.90;;;;;;;2.65;100.00;95987.56;5016174;28;20234;-65
2022/12/27 07:46:34;;;;;;;1999.90;999.90;;;;;;;3.61;100.00;95956.06;5016022;28;20222;-66
2022/12/27 07:49:00;;;;;;;1999.90;999.90;;;;;;;4.68;100.00;95938.34;5015756;28;20179;-67
2022/12/27 07:51:26;;;;;;;1999.90;999.90;;;;;;;5.76;100.00;95971.56;5015987;28;20203;-59
2022/12/27 07:53:53;;;;;;;1999.90;999.90;;;;;;;6.68;100.00;96059.69;5015262;28;20183;-61
2022/12/27 07:56:22;;;;;;;1999.90;999.90;;;;;;;6.92;100.00;96190.78;5015567;28;20191;-60
2022/12/27 07:58:49;;;;;;;1999.90;999.90;;;;;;;7.08;100.00;96265.56;4999316;28;20181;-60
2022/12/27 08:01:16;;;;;;;1999.90;999.90;;;;;;;7.27;100.00;96322.56;5016061;28;20191;-60
2022/12/27 08:03:41;;;;;;;1999.90;999.90;;;;;;;7.49;100.00;96345.50;5015109;28;20243;-60
2022/12/27 08:06:18;;;;;;;1999.90;999.90;;;;;;;7.98;100.00;96385.25;5015373;28;20317;-60
2022/12/27 08:08:44;;;;;;;1999.90;999.90;;;;;;;8.29;100.00;96411.47;5016111;28;20208;-68
2022/12/27 08:11:10;;;;;;;1999.90;999.90;;;;;;;8.51;100.00;96430.50;5015414;28;20184;-60
2022/12/27 08:13:35;;;;;;;1999.90;999.90;;;;;;;8.64;100.00;96439.28;5015661;28;20176;-59
2022/12/27 08:16:01;;;;;;;1999.90;999.90;;;;;;;9.12;100.00;96443.91;5015161;28;20181;-61
2022/12/27 08:18:27;;;;;;;1999.90;999.90;;;;;;;9.44;100.00;96445.91;5015174;28;20246;-61
2022/12/27 08:20:52;;;;;;;1999.90;999.90;;;;;;;9.89;100.00;96451.16;5015644;28;20177;-61
2022/12/27 08:23:17;;;;;;;1999.90;999.90;;;;;;;;;;5014697;28;20173;-61
2022/12/27 08:25:44;;;;;;;1999.90;999.90;;;;;;;10.69;100.00;96455.09;5014985;28;20213;-62
2022/12/27 08:28:11;;;;;;;1999.90;999.90;;;;;;;10.77;100.00;96456.72;5015834;28;20184;-58
2022/12/27 08:30:39;;;;;;;1999.90;999.90;;;;;;;10.94;100.00;96461.53;5015052;28;20600;-65
2022/12/27 08:33:04;;;;;;;1999.90;999.90;;;;;;;10.86;100.00;96465.38;5014925;28;20250;-65
2022/12/27 08:35:30;;;;;;;1999.90;999.90;;;;;;;11.25;100.00;96466.47;5015217;28;20285;-64
2022/12/27 08:37:55;;;;;;;1999.90;999.90;;;;;;;11.50;100.00;96468.16;5014733;28;20171;-65
2022/12/27 08:40:21;;;;;;;1999.90;999.90;;;;;;;11.36;100.00;96468.09;5014527;28;20176;-68
2022/12/27 08:42:47;;;;;;;1999.90;999.90;;;;;;;11.59;100.00;96465.91;5014853;28;20175;-69
2022/12/27 08:45:13;;;;;;;1999.90;999.90;;;;;;;11.53;100.00;96472.09;5014466;28;20392;-69
2022/12/27 08:47:38;;;;;;;1999.90;999.90;;;;;;;11.37;100.00;96466.91;5014584;28;20183;-59
2022/12/27 08:50:04;;;;;;;1999.90;999.90;;;;;;;11.65;100.00;96466.34;5014669;28;20182;-62
2022/12/27 08:52:30;;;;;;;1999.90;999.90;;;;;;;12.20;100.00;96476.72;5014501;28;20183;-62
2022/12/27 08:54:55;;;;;;;1999.90;999.90;;;;;;;12.55;100.00;96478.75;5014312;28;20176;-61
2022/12/27 08:57:20;;;;;;;1999.90;999.90;;;;;;;12.63;100.00;96480.34;5014053;28;20175;-63
2022/12/27 08:59:46;;;;;;;1999.90;999.90;;;;;;;12.88;100.00;96475.66;5014473;28;20201;-63
2022/12/27 09:02:13;;;;;;;1999.90;999.90;;;;;;;12.47;100.00;96482.66;5013965;28;20172;-62
2022/12/27 09:04:38;;;;;;;1999.90;999.90;;;;;;;12.21;100.00;96483.00;5013728;28;20349;-64
2022/12/27 09:07:03;;;;;;;1999.90;999.90;;;;;;;12.09;100.00;96483.34;5013940;28;20278;-59
2022/12/27 09:09:29;;;;;;;1999.90;999.90;;;;;;;12.39;100.00;96483.81;5014283;28;20179;-61
2022/12/27 09:11:54;;;;;;;1999.90;999.90;;;;;;;12.81;100.00;96481.13;5014270;28;20180;-61
2022/12/27 09:14:20;;;;;;;1999.90;999.90;;;;;;;12.79;100.00;96489.00;5014240;28;20175;-59
2022/12/27 09:16:45;;;;;;;1999.90;999.90;;;;;;;13.30;100.00;96486.66;5013776;28;20187;-62
2022/12/27 09:19:10;;;;;;;1999.90;999.90;;;;;;;13.30;100.00;96500.38;5014276;28;20179;-60
2022/12/27 09:21:39;;;;;;;1999.90;999.90;;;;;;;13.22;100.00;96501.53;5014163;28;20225;-64
2022/12/27 09:24:05;;;;;;;1999.90;999.90;;;;;;;13.07;100.00;96505.47;5013984;28;20223;-61
2022/12/27 09:26:30;;;;;;;1999.90;999.90;;;;;;;13.62;100.00;96501.09;5014543;28;20176;-65
2022/12/27 09:28:56;;;;;;;1999.90;999.90;;;;;;;13.03;100.00;96504.69;5014049;28;20242;-66
2022/12/27 09:31:23;;;;;;;1999.90;999.90;;;;;;;13.24;100.00;96501.94;5013456;28;20179;-64
2022/12/27 09:33:49;;;;;;;1999.90;999.90;;;;;;;12.99;100.00;96507.44;5013916;28;20183;-63
2022/12/27 09:36:17;;;;;;;1999.90;999.90;;;;;;;13.13;100.00;96510.19;5014356;28;20179;-64
2022/12/27 09:38:43;;;;;;;1999.90;999.90;;;;;;;13.15;100.00;96510.56;5014045;28;20258;-63
2022/12/27 09:41:12;;;;;;;1999.90;999.90;;;;;;;13.15;100.00;96501.56;5013498;28;20183;-60
2022/12/27 09:43:43;;;;;;;1999.90;999.90;;;;;;;13.60;100.00;96498.00;5014256;28;20306;-61
2022/12/27 09:46:27;;;;;;;1999.90;999.90;;;;;;;13.55;100.00;96503.09;5014134;28;20221;-60
2022/12/27 09:48:54;;;;;;;1999.90;999.90;;;;;;;13.45;100.00;96498.41;5014483;28;20179;-60
2022/12/27 09:51:27;;;;;;;1999.90;999.90;;;;;;;13.32;100.00;96498.00;5013644;28;20179;-61
2022/12/27 09:54:11;;;;;;;1999.90;999.90;;;;;;;13.08;100.00;96491.38;5013609;28;20359;-59
2022/12/27 09:56:37;;;;;;;1999.90;999.90;;;;;;;12.93;100.00;96491.75;5013875;28;20302;-60
2022/12/27 09:59:23;;;;;;;1999.90;999.90;;;;;;;13.00;100.00;96494.50;5016748;28;20230;-68
2022/12/27 10:01:49;;;;;;;1999.90;999.90;;;;;;;12.61;100.00;96504.63;5017869;28;20190;-61
2022/12/27 10:04:16;;;;;;;1999.90;999.90;;;;;;;13.10;100.00;96491.78;5017395;28;20207;-61
2022/12/27 10:06:48;;;;;;;1999.90;999.90;;;;;;;12.62;100.00;96501.50;5018052;28;20224;-61
2022/12/27 10:09:31;;;;;;;1999.90;999.90;;;;;;;12.55;100.00;96496.00;5017579;28;20262;-60
2022/12/27 10:12:13;;;;;;;1999.90;999.90;;;;;;;12.73;100.00;96490.53;5017664;28;20183;-61
2022/12/27 10:15:01;;;;;;;1999.90;999.90;;;;;;;12.80;100.00;96480.38;5018237;28;20174;-61
2022/12/27 10:17:53;;;;;;;1999.90;999.90;;;;;;;13.15;100.00;96479.63;5017428;28;20179;-65
2022/12/27 10:20:44;;;;;;;1999.90;999.90;;;;;;;12.77;100.00;96475.66;5017976;28;20175;-61
2022/12/27 10:23:14;;;;;;;1999.90;999.90;;;;;;;12.25;100.00;96487.31;5017901;28;20172;-61
2022/12/27 10:25:40;;;;;;;1999.90;999.90;;;;;;;11.63;100.00;96488.63;5016710;28;20203;-60
2022/12/27 10:28:15;;;;;;;1999.90;999.90;;;;;;;11.78;100.00;96483.97;5017364;28;20179;-61
2022/12/27 10:30:41;;;;;;;1999.90;999.90;;;;;;;11.72;100.00;96482.78;5017133;28;20269;-61
2022/12/27 10:33:39;;;;;;;1999.90;999.90;;;;;;;11.63;100.00;96491.34;5018007;28;20207;-60
2022/12/27 10:36:26;;;;;;;1999.90;999.90;;;;;;;11.52;100.00;96492.41;5014394;28;20201;-60
2022/12/27 10:38:53;;;;;;;1999.90;999.90;;;;;;;11.06;100.00;96485.84;5017469;28;20218;-68
2022/12/27 10:41:48;;;;;;;1999.90;999.90;;;;;;;10.29;100.00;96485.13;5017545;28;20182;-65
2022/12/27 10:44:14;;;;;;;1999.90;999.90;;;;;;;10.08;100.00;96478.28;5010520;28;20207;-68
2022/12/27 10:46:43;;;;;;;1999.90;999.90;;;;;;;9.62;100.00;96482.38;5016923;28;20205;-67
2022/12/27 10:49:30;;;;;;;1999.90;999.90;;;;;;;9.49;100.00;96475.59;5016804;28;20183;-67
2022/12/27 10:52:08;;;;;;;1999.90;999.90;;;;;;;9.20;100.00;96483.72;5016399;28;20175;-68
2022/12/27 10:54:34;;;;;;;1999.90;999.90;;;;;;;9.06;100.00;96473.41;5016425;28;20170;-59
2022/12/27 10:57:25;;;;;;;1999.90;999.90;;;;;;;8.84;100.00;96467.97;5016782;28;20223;-70
2022/12/27 11:00:13;;;;;;;1999.90;999.90;;;;;;;8.77;100.00;96465.94;5017037;28;20173;-69
2022/12/27 11:02:56;;;;;;;1999.90;999.90;;;;;;;8.63;100.00;96464.94;5016471;28;20180;-69
2022/12/27 11:05:27;;;;;;;1999.90;999.90;;;;;;;8.55;100.00;96466.75;5016158;28;20238;-71
2022/12/27 11:07:52;;;;;;;1999.90;999.90;;;;;;;8.39;100.00;96463.38;5016846;28;20163;-68
2022/12/27 11:10:26;;;;;;;1999.90;999.90;;;;;;;8.42;100.00;96470.78;5015543;28;20179;-68
2022/12/27 11:13:00;;;;;;;1999.90;999.90;;;;;;;8.36;100.00;96474.19;5016556;28;20202;-58
2022/12/27 11:15:29;;;;;;;1999.90;999.90;;;;;;;8.21;100.00;96467.69;5016838;28;20183;-66
2022/12/27 11:17:57;;;;;;;1999.90;999.90;;;;;;;8.02;100.00;96461.47;5015928;28;20269;-64
2022/12/27 11:20:44;;;;;;;1999.90;999.90;;;;;;;8.06;100.00;96462.31;5016293;28;20206;-63
2022/12/27 11:23:13;;;;;;;1999.90;999.90;;;;;;;7.98;100.00;96445.06;5016328;28;20187;-66
2022/12/27 11:25:52;;;;;;;1999.90;999.90;;;;;;;8.04;100.00;96453.72;5016322;28;20287;-65
2022/12/27 11:28:38;;;;;;;1999.90;999.90;;;;;;;8.04;100.00;96453.72;5016827;28;20172;-64
2022/12/27 11:31:08;;;;;;;1999.90;999.90;;;;;;;8.09;100.00;96445.28;5016027;28;20232;-65
2022/12/27 11:33:41;;;;;;;1999.90;999.90;;;;;;;8.14;100.00;96445.78;5016420;28;20180;-58
2022/12/27 11:36:09;;;;;;;1999.90;999.90;;;;;;;8.17;100.00;96436.09;5015923;28;20180;-59
2022/12/27 11:38:37;;;;;;;1999.90;999.90;;;;;;;8.21;100.00;96437.78;5015640;28;20205;-59
2022/12/27 11:41:23;;;;;;;1999.90;999.90;;;;;;;8.34;100.00;96432.94;5016965;28;20199;-58
2022/12/27 11:44:00;;;;;;;1999.90;999.90;;;;;;;8.38;100.00;96431.84;5015413;28;20254;-59
2022/12/27 11:46:55;;;;;;;1999.90;999.90;;;;;;;8.34;100.00;96431.00;5016353;28;20197;-58
2022/12/27 11:49:31;;;;;;;1999.90;999.90;;;;;;;8.32;100.00;96433.31;5008903;28;20274;-60
2022/12/27 11:52:23;;;;;;;1999.90;999.90;;;;;;;8.30;100.00;96430.16;5015514;28;20174;-60
2022/12/27 11:55:22;;;;;;;1999.90;999.90;;;;;;;8.16;100.00;96434.53;5016211;28;20171;-61
2022/12/27 11:57:51;;;;;;;1999.90;999.90;;;;;;;8.25;100.00;96427.75;5016206;28;20179;-60
2022/12/27 12:00:21;;;;;;;1999.90;999.90;;;;;;;8.23;100.00;96430.03;5015732;28;20278;-61
2022/12/27 12:03:13;;;;;;;1999.90;999.90;;;;;;;8.26;100.00;96440.19;5016512;28;20269;-62
2022/12/27 12:06:05;;;;;;;1999.90;999.90;;;;;;;8.32;100.00;96433.31;5015675;28;20227;-63
2022/12/27 12:09:07;;;;;;;1999.90;999.90;;;;;;;8.33;100.00;96434.88;5015014;28;20187;-61
2022/12/27 12:11:59;;;;;;;1999.90;999.90;;;;;;;8.47;100.00;96429.66;4978337;28;20660;-61
2022/12/27 12:14:55;;;;;;;1999.90;999.90;;;;;;;8.54;100.00;96423.56;5015318;28;20214;-61
2022/12/27 12:17:34;;;;;;;1999.90;999.90;;;;;;;8.47;100.00;96423.44;5015834;28;20179;-61
2022/12/27 12:20:15;;;;;;;1999.90;999.90;;;;;;;8.48;100.00;96420.34;5015524;28;20177;-61
2022/12/27 12:22:53;;;;;;;1999.90;999.90;;;;;;;8.29;100.00;96427.78;5015520;28;20280;-61
2022/12/27 12:25:54;;;;;;;1999.90;999.90;;;;;;;8.44;100.00;96424.94;5015487;28;20237;-59
2022/12/27 12:28:38;;;;;;;1999.90;999.90;;;;;;;8.27;100.00;96425.44;5015439;28;20174;-66
2022/12/27 12:31:34;;;;;;;1999.90;999.90;;;;;;;8.45;100.00;96415.63;5014997;28;20187;-60
2022/12/27 12:34:31;;;;;;;1999.90;999.90;;;;;;;8.55;100.00;96415.03;5014524;28;20179;-60
2022/12/27 12:37:16;;;;;;;1999.90;999.90;;;;;;;8.57;100.00;96418.19;5014679;28;20178;-61
2022/12/27 12:39:57;;;;;;;1999.90;999.90;;;;;;;8.62;100.00;96409.69;5015667;28;20175;-60
2022/12/27 12:42:57;;;;;;;1999.90;999.90;;;;;;;8.62;100.00;96409.69;5015226;28;20175;-60
2022/12/27 12:45:36;;;;;;;1999.90;999.90;;;;;;;8.66;100.00;96405.09;5014968;28;20211;-59
2022/12/27 12:48:19;;;;;;;1999.90;999.90;;;;;;;8.50;100.00;96412.63;5015052;28;20174;-67